Time;durP1;ratioP1;P1;durP2;ratioP2;P2;SDS_P1;SDS_P2;PMS_P1;PMS_P2;Temp;Humidity;BMP_temperature;BMP_pressure;BME280_temperature;BME280_humidity;BME280_pressure;Samples;Min_cycle;Max_cycle;Signal;HPM_P1;HPM_P2
2021/07/01 00:00:10;;;;;;;16.10;14.35;;;;;;;23.29;88.90;96578.00;4983976;28;20252;-63
2021/07/01 00:02:35;;;;;;;15.57;14.02;;;;;;;22.98;89.03;96529.97;4984172;28;20045;-63
2021/07/01 00:05:02;;;;;;;18.95;14.65;;;;;;;23.16;89.41;96574.44;4985660;28;20046;-63
2021/07/01 00:07:28;;;;;;;17.13;13.90;;;;;;;22.79;90.41;96539.63;4985034;28;20066;-63
2021/07/01 00:09:53;;;;;;;18.85;14.50;;;;;;;23.03;90.33;96570.97;4985527;28;20031;-63
2021/07/01 00:12:19;;;;;;;16.17;14.48;;;;;;;23.03;90.71;96570.97;4983359;28;20061;-63
2021/07/01 00:14:44;;;;;;;19.17;15.15;;;;;;;22.67;91.09;96532.00;4999833;28;20046;-63
2021/07/01 00:17:10;;;;;;;16.80;14.40;;;;;;;22.90;90.35;96573.09;4983364;28;20026;-63
2021/07/01 00:19:35;;;;;;;17.30;14.93;;;;;;;22.78;90.84;96571.91;4985372;28;20255;-64
2021/07/01 00:22:01;;;;;;;17.05;15.25;;;;;;;22.86;90.68;96572.44;5000123;28;20118;-63
2021/07/01 00:24:26;;;;;;;16.50;14.65;;;;;;;22.78;90.53;96554.97;4980126;28;20792;-63
2021/07/01 00:26:52;;;;;;;17.83;15.75;;;;;;;22.75;91.47;96567.19;4963948;28;20548;-63
2021/07/01 00:29:17;;;;;;;22.33;15.98;;;;;;;22.66;91.36;96552.22;4963898;28;20038;-63
2021/07/01 00:31:43;;;;;;;17.23;15.43;;;;;;;22.57;91.87;96550.16;4963784;28;20038;-63
2021/07/01 00:34:08;;;;;;;16.95;15.32;;;;;;;22.46;91.29;96539.22;4963979;28;20113;-64
2021/07/01 00:36:34;;;;;;;19.83;16.73;;;;;;;22.44;91.76;96547.38;4963945;28;20077;-63
2021/07/01 00:39:00;;;;;;;18.88;15.40;;;;;;;22.63;92.11;96567.28;4964321;28;20084;-63
2021/07/01 00:41:26;;;;;;;23.10;16.08;;;;;;;22.27;91.42;96508.53;4963948;28;20034;-63
2021/07/01 00:43:51;;;;;;;18.27;16.23;;;;;;;22.60;91.68;96565.38;4964250;28;20061;-63
2021/07/01 00:46:17;;;;;;;17.33;15.63;;;;;;;;;;4965647;28;20030;-63
2021/07/01 00:48:43;;;;;;;17.50;15.13;;;;;;;22.53;92.19;96548.69;4963642;28;20525;-63
2021/07/01 00:51:09;;;;;;;18.10;16.23;;;;;;;22.29;90.89;96495.50;4963758;28;20054;-63
2021/07/01 00:53:35;;;;;;;20.85;15.52;;;;;;;22.73;90.71;96560.44;4963518;28;20109;-64
2021/07/01 00:56:01;;;;;;;18.80;15.20;;;;;;;22.74;89.59;96553.53;4965215;28;20502;-63
2021/07/01 00:58:27;;;;;;;15.80;14.15;;;;;;;22.41;89.95;96502.34;4963758;28;20069;-63
2021/07/01 01:01:02;;;;;;;16.65;14.70;;;;;;;21.97;89.89;96431.03;4963875;28;20478;-63
2021/07/01 01:03:30;;;;;;;18.27;15.68;;;;;;;22.55;90.60;96554.66;4963567;28;20030;-63
2021/07/01 01:05:56;;;;;;;18.48;14.82;;;;;;;22.53;90.77;96557.94;4964921;28;20070;-64
2021/07/01 01:08:22;;;;;;;22.42;16.15;;;;;;;22.13;92.06;96515.47;4963397;28;20030;-64
2021/07/01 01:10:47;;;;;;;16.70;14.93;;;;;;;21.80;91.41;96446.56;4963128;28;20030;-64
2021/07/01 01:13:26;;;;;;;18.08;15.70;;;;;;;22.36;91.79;96563.00;4963054;28;20134;-63
2021/07/01 01:15:54;;;;;;;16.33;14.63;;;;;;;22.44;90.39;96555.84;4963140;28;20125;-63
2021/07/01 01:18:21;;;;;;;19.42;15.50;;;;;;;22.19;91.22;96532.59;4962764;28;20090;-63
2021/07/01 01:20:48;;;;;;;18.35;14.55;;;;;;;22.35;91.21;96558.59;4963188;28;20041;-63
2021/07/01 01:23:13;;;;;;;17.50;15.63;;;;;;;22.34;90.80;96557.03;4963656;28;20026;-63
2021/07/01 01:25:41;;;;;;;18.08;15.75;;;;;;;22.21;91.27;96556.28;4964400;28;20497;-63
2021/07/01 01:28:06;;;;;;;17.38;15.57;;;;;;;22.10;92.23;96555.88;4962739;28;20453;-63
2021/07/01 01:30:32;;;;;;;20.75;16.33;;;;;;;21.86;93.26;96518.06;4964829;28;20035;-64
2021/07/01 01:32:57;;;;;;;18.02;16.08;;;;;;;22.18;92.12;96559.22;4963129;28;20045;-63
2021/07/01 01:35:23;;;;;;;17.65;15.60;;;;;;;22.15;92.11;96557.31;4964774;28;20486;-64
2021/07/01 01:37:48;;;;;;;19.25;15.95;;;;;;;22.13;92.29;96546.50;4964674;28;20599;-63
2021/07/01 01:40:14;;;;;;;21.65;17.25;;;;;;;22.02;93.38;96559.44;4963412;28;20526;-63
2021/07/01 01:42:41;;;;;;;20.02;16.52;;;;;;;21.97;93.65;96549.50;4979502;28;20098;-63
2021/07/01 01:45:07;;;;;;;19.15;15.85;;;;;;;21.20;92.32;96554.94;4964979;28;20140;-63
2021/07/01 01:47:32;;;;;;;19.40;17.38;;;;;;;21.66;94.10;96514.72;4962934;28;20502;-63
2021/07/01 01:49:58;;;;;;;20.58;16.90;;;;;;;21.94;93.61;96529.91;4965137;28;20061;-63
2021/07/01 01:52:24;;;;;;;18.98;16.50;;;;;;;21.91;93.80;96556.97;4962850;28;20093;-63
2021/07/01 01:54:49;;;;;;;18.13;16.23;;;;;;;21.59;92.75;96483.94;4962888;28;20045;-62
2021/07/01 01:57:15;;;;;;;20.27;16.20;;;;;;;21.96;92.36;96544.31;4964694;28;20027;-63
2021/07/01 01:59:40;;;;;;;22.98;15.40;;;;;;;21.97;93.39;96557.19;4963175;28;20509;-63
2021/07/01 02:02:06;;;;;;;17.95;15.70;;;;;;;21.85;93.21;96555.97;4964983;28;20077;-63
2021/07/01 02:04:32;;;;;;;17.98;16.08;;;;;;;21.22;94.26;96481.25;4963004;28;20046;-62
2021/07/01 02:06:57;;;;;;;18.80;16.92;;;;;;;20.16;95.66;96351.59;4964167;28;20108;-63
2021/07/01 02:09:23;;;;;;;20.20;16.75;;;;;;;21.50;95.77;96554.34;4962672;28;20422;-63
2021/07/01 02:11:49;;;;;;;24.20;16.15;;;;;;;21.62;95.06;96547.91;4962581;28;20042;-63
2021/07/01 02:14:17;;;;;;;20.13;16.73;;;;;;;21.41;94.68;96526.06;4978290;28;20051;-62
2021/07/01 02:16:42;;;;;;;19.67;17.70;;;;;;;21.18;95.10;96526.44;4962925;28;20031;-63
2021/07/01 02:19:08;;;;;;;20.13;17.92;;;;;;;21.60;95.00;96556.03;4962736;28;20514;-62
2021/07/01 02:21:33;;;;;;;22.08;18.35;;;;;;;21.46;95.50;96559.31;4963124;28;20034;-63
2021/07/01 02:23:59;;;;;;;23.70;18.35;;;;;;;21.27;95.71;96532.19;4962844;28;20049;-64
2021/07/01 02:26:24;;;;;;;21.40;17.90;;;;;;;21.39;95.08;96544.66;4962586;28;20030;-64
2021/07/01 02:28:50;;;;;;;19.88;17.38;;;;;;;21.47;95.24;96555.25;4962539;28;20062;-64
2021/07/01 02:31:15;;;;;;;20.02;18.00;;;;;;;21.49;95.28;96555.59;4965521;28;20073;-63
2021/07/01 02:33:41;;;;;;;21.52;17.30;;;;;;;21.50;95.02;96557.16;4967476;28;20047;-65
2021/07/01 02:36:07;;;;;;;21.67;17.73;;;;;;;21.47;95.54;96562.91;4965995;28;20149;-62
2021/07/01 02:38:33;;;;;;;18.50;16.67;;;;;;;21.54;93.63;96573.94;4966309;28;20038;-62
2021/07/01 02:40:58;;;;;;;19.05;17.10;;;;;;;21.49;94.15;96582.97;4968017;28;20410;-62
2021/07/01 02:43:24;;;;;;;20.52;17.05;;;;;;;21.38;94.32;96577.69;4968608;28;20031;-62
2021/07/01 02:45:49;;;;;;;20.77;17.95;;;;;;;20.98;94.54;96523.06;4965977;28;20030;-62
2021/07/01 02:48:15;;;;;;;25.30;19.05;;;;;;;21.33;95.27;96575.44;4967437;28;20542;-61
2021/07/01 02:50:41;;;;;;;23.08;18.00;;;;;;;21.30;96.02;96587.63;4967880;28;20023;-62
2021/07/01 02:53:07;;;;;;;21.77;17.75;;;;;;;20.96;95.80;96517.09;4967301;28;20713;-63
2021/07/01 02:55:34;;;;;;;24.83;19.10;;;;;;;21.06;96.07;96515.97;4967862;28;20116;-62
2021/07/01 02:58:00;;;;;;;21.35;18.70;;;;;;;21.20;94.92;96532.41;4965830;28;20501;-62
2021/07/01 03:00:26;;;;;;;21.75;17.48;;;;;;;21.39;94.84;96567.19;4965990;28;20066;-63
2021/07/01 03:02:51;;;;;;;20.33;18.00;;;;;;;21.31;93.81;96549.75;4967287;28;20410;-62
2021/07/01 03:05:17;;;;;;;20.83;18.17;;;;;;;21.26;93.51;96550.31;4966060;28;20117;-63
2021/07/01 03:07:42;;;;;;;20.08;17.27;;;;;;;21.51;92.86;96583.31;4967143;28;20078;-62
2021/07/01 03:10:08;;;;;;;20.48;17.60;;;;;;;21.38;93.90;96577.69;4967525;28;20774;-64
2021/07/01 03:12:34;;;;;;;19.50;17.25;;;;;;;21.13;93.73;96540.31;4966968;28;20074;-64
2021/07/01 03:14:59;;;;;;;22.05;17.77;;;;;;;21.42;93.36;96578.38;4967041;28;20604;-63
2021/07/01 03:17:26;;;;;;;19.63;16.20;;;;;;;21.33;93.19;96592.34;4967608;28;20469;-63
2021/07/01 03:19:52;;;;;;;21.02;17.08;;;;;;;21.21;94.18;96567.81;4967036;28;20042;-63
2021/07/01 03:22:17;;;;;;;20.73;18.63;;;;;;;21.44;93.85;96598.44;4966713;28;20093;-63
2021/07/01 03:24:43;;;;;;;19.77;17.73;;;;;;;21.55;92.40;96598.06;4965319;28;20031;-64
2021/07/01 03:27:09;;;;;;;24.88;19.95;;;;;;;21.32;94.24;96590.00;4966619;28;20489;-62
2021/07/01 03:29:35;;;;;;;24.90;19.35;;;;;;;20.85;96.56;96539.94;4965212;28;20478;-63
2021/07/01 03:32:00;;;;;;;28.33;20.80;;;;;;;21.45;96.02;96605.63;4981291;28;20033;-64
2021/07/01 03:34:26;;;;;;;25.15;20.52;;;;;;;21.48;95.29;96604.72;4967035;28;20070;-63
2021/07/01 03:36:51;;;;;;;22.55;19.80;;;;;;;21.60;94.90;96612.41;4965281;28;20565;-63
2021/07/01 03:39:17;;;;;;;23.42;20.52;;;;;;;21.78;94.11;96604.16;4981191;28;20478;-63
2021/07/01 03:41:42;;;;;;;22.88;20.50;;;;;;;21.86;93.85;96602.66;4964630;28;20035;-64
2021/07/01 03:44:09;;;;;;;23.23;20.73;;;;;;;21.91;93.61;96595.66;4965071;28;20649;-63
2021/07/01 03:46:37;;;;;;;29.48;21.23;;;;;;;22.05;93.20;96621.34;4981148;28;20039;-64
2021/07/01 03:49:03;;;;;;;26.52;21.90;;;;;;;22.31;91.23;96611.56;4964764;28;20031;-63
2021/07/01 03:51:28;;;;;;;22.65;19.13;;;;;;;21.99;90.51;96568.78;4964759;28;20031;-64
2021/07/01 03:53:54;;;;;;;23.92;18.92;;;;;;;22.18;89.12;96576.16;4964808;28;20104;-65
2021/07/01 03:56:19;;;;;;;20.10;17.45;;;;;;;22.55;87.71;96609.09;4964899;28;20031;-64
2021/07/01 03:58:45;;;;;;;19.92;17.15;;;;;;;22.61;86.41;96595.16;4964585;28;20035;-63
2021/07/01 04:01:11;;;;;;;19.73;17.73;;;;;;;22.61;86.65;96601.63;4965865;28;20368;-64
2021/07/01 04:03:36;;;;;;;20.75;18.52;;;;;;;22.67;85.50;96588.47;4964268;28;20153;-64
2021/07/01 04:06:02;;;;;;;19.50;17.10;;;;;;;22.77;85.21;96604.25;4965980;28;20564;-64
2021/07/01 04:08:28;;;;;;;21.00;17.00;;;;;;;22.88;84.87;96610.28;4964685;28;20038;-65
2021/07/01 04:10:54;;;;;;;18.15;15.95;;;;;;;23.06;83.54;96584.16;4966250;28;20326;-64
2021/07/01 04:13:19;;;;;;;23.25;16.70;;;;;;;23.33;82.47;96601.28;4964640;28;20038;-63
2021/07/01 04:15:45;;;;;;;25.45;15.93;;;;;;;23.44;81.98;96595.97;4964592;28;20434;-64
2021/07/01 04:18:12;;;;;;;20.17;15.95;;;;;;;23.50;80.87;96602.59;4965664;28;20031;-62
2021/07/01 04:20:38;;;;;;;18.60;16.08;;;;;;;23.45;81.18;96591.88;4964468;28;20055;-64
2021/07/01 04:23:05;;;;;;;17.73;15.80;;;;;;;23.66;81.60;96599.50;4980347;28;20702;-63
2021/07/01 04:25:32;;;;;;;20.92;16.02;;;;;;;23.78;80.21;96604.25;4965782;28;20127;-63
2021/07/01 04:27:58;;;;;;;18.23;16.23;;;;;;;23.77;80.29;96597.03;4965403;28;20027;-64
2021/07/01 04:30:23;;;;;;;17.90;16.00;;;;;;;23.90;80.10;96583.50;4963834;28;20034;-64
2021/07/01 04:32:49;;;;;;;25.98;15.90;;;;;;;23.56;78.84;96535.69;4963809;28;20039;-63
2021/07/01 04:35:14;;;;;;;17.90;15.43;;;;;;;24.28;77.43;96595.22;4964014;28;20038;-64
2021/07/01 04:37:40;;;;;;;18.55;15.93;;;;;;;24.23;77.53;96581.72;4963855;28;20042;-63
2021/07/01 04:40:09;;;;;;;18.67;16.88;;;;;;;24.25;77.09;96576.34;4965485;28;20054;-63
2021/07/01 04:42:36;;;;;;;17.98;15.05;;;;;;;23.83;76.93;96491.25;4963659;28;20049;-63
2021/07/01 04:45:05;;;;;;;18.60;16.33;;;;;;;24.63;76.48;96585.13;4963828;28;20046;-63
2021/07/01 04:47:31;;;;;;;20.95;16.15;;;;;;;24.84;74.90;96567.19;4963596;28;20489;-65
2021/07/01 04:49:56;;;;;;;18.20;15.38;;;;;;;25.12;73.86;96593.41;4963647;28;20046;-63
2021/07/01 04:52:22;;;;;;;23.50;17.17;;;;;;;25.24;73.32;96592.44;4963904;28;20505;-62
2021/07/01 04:54:47;;;;;;;23.48;16.70;;;;;;;25.31;72.44;96578.69;4962707;28;20038;-62
2021/07/01 04:57:13;;;;;;;20.63;16.65;;;;;;;25.20;73.85;96571.97;4965036;28;20085;-63
2021/07/01 04:59:38;;;;;;;19.00;16.63;;;;;;;25.40;72.03;96568.59;4965178;28;20497;-63
2021/07/01 05:02:04;;;;;;;17.85;16.00;;;;;;;25.34;72.57;96530.84;4963329;28;20949;-64
2021/07/01 05:04:29;;;;;;;20.20;15.80;;;;;;;25.78;71.13;96548.88;4963060;28;20049;-64
2021/07/01 05:06:55;;;;;;;20.42;17.23;;;;;;;25.69;70.78;96540.41;4964893;28;20042;-64
2021/07/01 05:09:20;;;;;;;20.98;17.52;;;;;;;25.71;73.64;96560.56;4964983;28;20222;-62
2021/07/01 05:11:45;;;;;;;19.88;17.33;;;;;;;25.38;74.42;96537.09;4965328;28;20033;-63
2021/07/01 05:14:11;;;;;;;20.08;17.83;;;;;;;25.46;72.47;96501.44;4962938;28;20438;-63
2021/07/01 05:16:36;;;;;;;20.50;17.50;;;;;;;25.76;73.00;96528.69;4964999;28;20122;-64
2021/07/01 05:19:02;;;;;;;23.42;16.65;;;;;;;26.05;73.51;96569.34;4963221;28;20137;-63
2021/07/01 05:21:28;;;;;;;19.52;17.58;;;;;;;25.61;75.48;96568.34;4963341;28;20042;-62
2021/07/01 05:23:54;;;;;;;20.00;17.75;;;;;;;24.75;75.26;96410.59;4965350;28;20038;-66
2021/07/01 05:26:20;;;;;;;24.38;18.65;;;;;;;26.01;74.39;96590.69;4984470;28;20030;-63
2021/07/01 05:28:45;;;;;;;21.70;17.70;;;;;;;25.84;74.61;96552.59;4999355;28;20034;-63
2021/07/01 05:31:12;;;;;;;27.88;18.58;;;;;;;25.37;76.83;96546.88;4984542;28;20058;-62
2021/07/01 05:33:38;;;;;;;21.88;18.33;;;;;;;25.83;74.82;96545.38;4999160;28;20042;-63
2021/07/01 05:36:04;;;;;;;28.20;18.13;;;;;;;25.78;73.17;96521.25;4998993;28;20045;-64
2021/07/01 05:38:29;;;;;;;21.50;18.15;;;;;;;25.71;72.56;96481.09;4984259;28;20050;-63
2021/07/01 05:40:55;;;;;;;26.35;17.63;;;;;;;26.31;71.90;96547.72;4983976;28;20516;-63
2021/07/01 05:43:20;;;;;;;20.67;17.77;;;;;;;26.26;71.21;96499.28;4998948;28;20038;-61
2021/07/01 05:45:46;;;;;;;22.50;18.95;;;;;;;25.98;73.14;96529.16;4984486;28;20092;-62
2021/07/01 05:48:12;;;;;;;20.95;17.45;;;;;;;26.15;71.91;96516.91;4998830;28;20731;-62
2021/07/01 05:50:54;;;;;;;23.70;18.05;;;;;;;26.74;70.54;96537.69;4982651;28;20072;-62
2021/07/01 05:53:27;;;;;;;24.48;18.13;;;;;;;26.94;69.51;96532.09;4998496;28;20109;-63
2021/07/01 05:55:53;;;;;;;20.47;17.47;;;;;;;26.41;68.06;96434.78;4976799;28;20058;-66
2021/07/01 05:58:18;;;;;;;20.45;17.13;;;;;;;27.27;68.06;96541.22;4968095;28;20483;-63
2021/07/01 06:00:44;;;;;;;20.10;17.77;;;;;;;26.43;69.17;96472.00;4981898;28;20121;-62
2021/07/01 06:03:09;;;;;;;22.08;17.77;;;;;;;25.03;71.52;96336.28;4968211;28;20035;-63
2021/07/01 06:05:37;;;;;;;21.08;18.05;;;;;;;26.71;69.02;96513.88;4966885;28;20141;-63
2021/07/01 06:08:06;;;;;;;21.50;18.35;;;;;;;27.07;67.94;96551.72;4976127;28;20049;-62
2021/07/01 06:10:32;;;;;;;20.15;17.35;;;;;;;26.69;68.71;96524.16;4975815;28;20097;-65
2021/07/01 06:12:59;;;;;;;20.52;17.20;;;;;;;26.92;66.50;96500.53;4986172;28;20110;-75
2021/07/01 06:15:26;;;;;;;21.48;17.70;;;;;;;26.91;69.48;96543.66;4970272;28;20061;-69
2021/07/01 06:17:52;;;;;;;20.05;18.02;;;;;;;27.01;67.46;96514.66;4968090;28;20034;-64
2021/07/01 06:20:17;;;;;;;24.38;17.48;;;;;;;27.28;67.15;96522.91;4985765;28;20049;-62
2021/07/01 06:22:45;;;;;;;19.20;15.88;;;;;;;27.53;66.73;96544.22;4981639;28;20027;-63
2021/07/01 06:25:11;;;;;;;23.00;16.73;;;;;;;27.27;66.01;96487.19;4987992;28;20046;-66
2021/07/01 06:27:37;;;;;;;21.40;16.55;;;;;;;27.87;65.37;96552.75;4982208;28;20417;-62
2021/07/01 06:30:14;;;;;;;17.60;15.80;;;;;;;26.52;68.26;96449.19;4974215;28;20125;-64
2021/07/01 06:32:44;;;;;;;19.42;17.40;;;;;;;27.59;66.55;96537.34;4979495;28;20041;-67
2021/07/01 06:35:12;;;;;;;18.83;16.85;;;;;;;27.65;66.87;96535.34;4972813;28;20034;-64
2021/07/01 06:37:39;;;;;;;18.15;15.88;;;;;;;26.67;69.06;96536.03;4977992;28;20041;-62
2021/07/01 06:40:08;;;;;;;17.85;15.82;;;;;;;27.26;67.50;96528.28;4987219;28;20045;-66
2021/07/01 06:42:49;;;;;;;19.65;15.82;;;;;;;27.69;65.89;96530.25;4980136;28;20038;-63
2021/07/01 06:45:17;;;;;;;17.75;15.85;;;;;;;28.05;62.93;96535.41;4985730;28;20104;-62
2021/07/01 06:47:48;;;;;;;17.98;15.20;;;;;;;27.16;64.52;96504.03;4981513;28;20153;-60
2021/07/01 06:50:15;;;;;;;19.45;17.35;;;;;;;27.88;63.68;96531.53;4968839;28;20031;-64
2021/07/01 06:52:44;;;;;;;18.20;16.27;;;;;;;28.44;62.37;96535.13;4977428;28;20030;-63
2021/07/01 06:55:14;;;;;;;21.23;15.85;;;;;;;28.72;61.79;96536.22;4975197;28;20094;-67
2021/07/01 06:57:41;;;;;;;19.25;16.40;;;;;;;28.83;60.62;96533.47;4979175;28;20039;-65
2021/07/01 07:00:09;;;;;;;16.98;15.27;;;;;;;27.75;64.02;96516.88;4981451;28;20035;-61
2021/07/01 07:02:35;;;;;;;18.83;16.58;;;;;;;27.73;64.83;96530.81;4986801;28;20533;-65
2021/07/01 07:05:03;;;;;;;19.73;16.40;;;;;;;28.25;64.30;96533.84;4980523;28;20240;-60
2021/07/01 07:07:30;;;;;;;17.95;15.30;;;;;;;28.84;61.88;96526.47;4969868;28;20038;-65
2021/07/01 07:09:57;;;;;;;18.13;16.10;;;;;;;27.89;61.93;96450.56;4967595;28;20523;-66
2021/07/01 07:12:22;;;;;;;19.00;15.52;;;;;;;27.76;63.50;96501.34;4974409;28;20456;-62
2021/07/01 07:14:48;;;;;;;18.27;16.38;;;;;;;27.88;61.58;96486.00;4974805;28;20096;-62
2021/07/01 07:17:14;;;;;;;17.48;15.52;;;;;;;28.46;60.01;96455.56;4973989;28;20041;-65
2021/07/01 07:19:42;;;;;;;18.05;16.35;;;;;;;29.12;60.04;96519.78;4982073;28;20061;-64
2021/07/01 07:22:10;;;;;;;16.90;15.18;;;;;;;29.55;57.39;96517.75;4984319;28;20026;-66
2021/07/01 07:24:38;;;;;;;20.48;17.48;;;;;;;29.77;56.71;96483.66;4985952;28;20041;-64
2021/07/01 07:27:05;;;;;;;20.08;16.33;;;;;;;29.41;56.19;96433.06;4966329;28;20399;-63
2021/07/01 07:29:32;;;;;;;19.27;14.95;;;;;;;30.29;53.61;96507.81;4975584;28;20125;-61
2021/07/01 07:32:00;;;;;;;17.40;15.70;;;;;;;30.33;53.34;96467.56;4971170;28;20469;-63
2021/07/01 07:34:26;;;;;;;17.05;15.35;;;;;;;30.50;52.85;96477.75;4978932;28;20127;-64
2021/07/01 07:36:51;;;;;;;19.30;17.30;;;;;;;30.81;53.11;96503.31;4981736;28;20057;-59
2021/07/01 07:39:17;;;;;;;21.35;17.95;;;;;;;30.79;52.95;96505.91;4985281;28;20458;-62
2021/07/01 07:41:43;;;;;;;19.02;15.25;;;;;;;30.80;52.82;96455.19;4985888;28;20034;-63
2021/07/01 07:44:08;;;;;;;17.73;16.05;;;;;;;30.65;52.17;96435.38;4975418;28;20045;-64
2021/07/01 07:46:34;;;;;;;16.83;14.63;;;;;;;31.08;52.58;96452.34;4976024;28;20433;-68
2021/07/01 07:49:00;;;;;;;18.85;15.55;;;;;;;31.52;51.54;96478.84;4970717;28;20039;-66
2021/07/01 07:51:29;;;;;;;18.55;16.58;;;;;;;32.13;50.40;96507.38;4981443;28;20052;-65
2021/07/01 07:54:00;;;;;;;18.23;16.40;;;;;;;31.38;49.98;96373.22;4984026;28;20049;-65
2021/07/01 07:56:36;;;;;;;18.52;16.45;;;;;;;32.16;50.60;96506.31;4984002;28;20045;-67
2021/07/01 07:59:03;;;;;;;19.15;17.20;;;;;;;31.77;51.49;96502.78;4975291;28;20125;-68
2021/07/01 08:01:30;;;;;;;18.63;16.80;;;;;;;31.60;52.22;96490.59;4977548;28;20117;-68
2021/07/01 08:03:56;;;;;;;20.60;18.58;;;;;;;31.86;51.31;96508.25;4974338;28;20038;-67
2021/07/01 08:06:25;;;;;;;17.60;16.05;;;;;;;31.78;51.63;96504.31;4978388;28;20476;-66
2021/07/01 08:08:53;;;;;;;18.75;16.98;;;;;;;30.08;51.83;96254.97;4972428;28;20460;-67
2021/07/01 08:11:21;;;;;;;18.92;16.20;;;;;;;31.99;51.39;96503.53;4970634;28;20045;-65
2021/07/01 08:13:48;;;;;;;18.67;16.73;;;;;;;31.51;51.64;96496.56;4966610;28;20046;-65
2021/07/01 08:16:14;;;;;;;18.05;16.38;;;;;;;31.74;52.23;96487.41;4972046;28;20655;-62
2021/07/01 08:18:43;;;;;;;17.92;16.23;;;;;;;30.74;53.50;96477.25;4985094;28;20085;-66
2021/07/01 08:21:15;;;;;;;19.13;17.13;;;;;;;30.27;53.41;96401.78;4976628;28;20030;-65
2021/07/01 08:23:42;;;;;;;19.50;17.60;;;;;;;31.33;53.22;96502.84;4966179;28;20482;-65
2021/07/01 08:26:08;;;;;;;19.25;16.15;;;;;;;30.98;52.81;96426.84;4965430;28;20033;-65
2021/07/01 08:28:34;;;;;;;18.17;16.40;;;;;;;31.87;51.87;96504.06;4972858;28;20462;-64
2021/07/01 08:31:17;;;;;;;18.90;16.77;;;;;;;31.32;52.53;96478.38;4983108;28;20137;-67
2021/07/01 08:33:45;;;;;;;21.67;17.52;;;;;;;31.52;50.49;96446.59;4983072;28;20035;-64
2021/07/01 08:36:20;;;;;;;19.42;17.35;;;;;;;32.03;50.58;96494.66;4968151;28;20027;-66
2021/07/01 08:38:49;;;;;;;22.65;17.80;;;;;;;31.91;50.54;96496.78;4965311;28;20129;-63
2021/07/01 08:41:17;;;;;;;19.58;17.33;;;;;;;31.67;50.69;96492.91;4965360;28;20026;-66
2021/07/01 08:44:09;;;;;;;18.63;16.63;;;;;;;30.73;51.63;96433.56;4965536;28;20180;-65
2021/07/01 08:46:48;;;;;;;27.95;16.90;;;;;;;31.77;50.75;96491.31;4965855;28;20061;-65
2021/07/01 08:49:32;;;;;;;18.05;15.52;;;;;;;31.98;49.97;96495.47;4963703;28;20417;-64
2021/07/01 08:52:02;;;;;;;21.48;17.95;;;;;;;31.95;49.54;96427.72;4964903;28;20070;-68
2021/07/01 08:54:33;;;;;;;21.38;17.45;;;;;;;31.63;50.58;96503.84;4965112;28;20046;-62
2021/07/01 08:57:00;;;;;;;21.95;19.83;;;;;;;31.44;49.69;96491.38;4967618;28;20042;-63
2021/07/01 08:59:36;;;;;;;18.63;16.73;;;;;;;31.34;50.37;96478.63;4968868;28;20044;-64
2021/07/01 09:02:02;;;;;;;44.75;39.92;;;;;;;31.13;50.15;96468.72;4983231;28;20026;-68
2021/07/01 09:04:30;;;;;;;23.35;17.58;;;;;;;31.70;49.57;96494.72;4964544;28;20398;-71
2021/07/01 09:06:59;;;;;;;18.63;15.05;;;;;;;31.92;49.09;96491.81;4969232;28;20031;-64
2021/07/01 09:09:29;;;;;;;18.80;15.48;;;;;;;31.19;48.95;96377.94;4967293;28;20478;-61
2021/07/01 09:11:55;;;;;;;18.65;16.10;;;;;;;32.27;48.73;96477.63;4964795;28;20049;-68
2021/07/01 09:14:24;;;;;;;20.00;17.13;;;;;;;32.09;48.50;96484.72;4965290;28;20059;-64
2021/07/01 09:16:51;;;;;;;20.52;16.25;;;;;;;31.62;47.20;96424.94;4965451;28;20038;-67
2021/07/01 09:19:18;;;;;;;23.75;16.30;;;;;;;32.45;47.55;96448.34;4969186;28;20532;-67
2021/07/01 09:21:45;;;;;;;18.02;14.77;;;;;;;32.76;46.52;96467.97;4995550;28;20049;-67
2021/07/01 09:24:13;;;;;;;21.75;16.83;;;;;;;32.75;46.03;96477.91;4969098;28;20046;-71
2021/07/01 09:26:41;;;;;;;30.73;21.08;;;;;;;30.81;46.20;96191.50;4964389;28;20038;-69
2021/07/01 09:29:08;;;;;;;20.85;18.02;;;;;;;33.06;45.48;96442.19;4971292;28;20474;-68
2021/07/01 09:31:35;;;;;;;23.05;15.32;;;;;;;32.56;43.68;96379.44;4963035;28;20038;-64
2021/07/01 09:34:01;;;;;;;19.00;14.93;;;;;;;32.61;43.95;96440.97;4964317;28;20042;-72
2021/07/01 09:36:27;;;;;;;18.00;13.43;;;;;;;32.64;42.80;96457.88;4963199;28;20042;-66
2021/07/01 09:38:54;;;;;;;20.40;15.15;;;;;;;33.16;42.58;96435.59;4963010;28;20034;-63
2021/07/01 09:41:23;;;;;;;21.95;14.52;;;;;;;33.77;42.03;96445.72;4966427;28;20114;-70
2021/07/01 09:43:49;;;;;;;19.15;13.50;;;;;;;33.72;41.24;96439.47;4966458;28;20049;-65
2021/07/01 09:46:18;;;;;;;23.80;13.82;;;;;;;33.81;40.75;96411.69;4963174;28;20066;-74
2021/07/01 09:48:47;;;;;;;23.77;14.75;;;;;;;34.33;39.93;96440.84;4963032;28;20042;-67
2021/07/01 09:51:14;;;;;;;21.48;13.40;;;;;;;34.25;39.79;96422.66;4971881;28;20169;-65
2021/07/01 09:53:40;;;;;;;17.25;12.68;;;;;;;32.74;41.51;96441.88;4968195;28;20039;-69
2021/07/01 09:56:09;;;;;;;24.17;15.18;;;;;;;33.31;39.75;96438.03;4968018;28;20034;-72
2021/07/01 09:59:00;;;;;;;17.17;12.70;;;;;;;33.28;40.17;96376.72;4973737;28;20049;-68
2021/07/01 10:01:32;;;;;;;23.95;14.43;;;;;;;33.25;39.48;96354.84;4973047;28;20092;-69
2021/07/01 10:04:01;;;;;;;21.88;14.32;;;;;;;34.10;39.10;96393.59;4980199;28;20488;-68
2021/07/01 10:06:27;;;;;;;19.02;12.48;;;;;;;34.22;nan;96420.88;4964110;28;20466;-69
2021/07/01 10:08:53;;;;;;;22.67;12.50;;;;;;;34.12;37.82;96419.69;4970828;28;20042;-70
2021/07/01 10:11:48;;;;;;;14.20;11.77;;;;;;;33.36;38.24;96389.19;4968023;28;20039;-65
2021/07/01 10:14:15;;;;;;;14.73;11.50;;;;;;;32.28;39.75;96335.78;4959449;28;20062;-69
2021/07/01 10:16:41;;;;;;;23.48;13.65;;;;;;;32.75;40.46;96420.50;4963037;28;20069;-69
2021/07/01 10:19:09;;;;;;;18.40;13.05;;;;;;;33.00;40.10;96333.19;4967977;28;20593;-63
2021/07/01 10:21:37;;;;;;;24.38;13.30;;;;;;;34.23;39.84;96390.78;4970785;28;20127;-63
2021/07/01 10:24:12;;;;;;;29.88;13.15;;;;;;;34.76;38.00;96404.16;4962813;28;20513;-65
2021/07/01 10:26:40;;;;;;;21.30;14.02;;;;;;;34.14;37.21;96233.03;4963673;28;20113;-68
2021/07/01 10:29:06;;;;;;;24.63;13.32;;;;;;;34.89;38.22;96390.59;4978468;28;20039;-72
2021/07/01 10:31:59;;;;;;;19.30;13.77;;;;;;;33.97;39.44;96385.66;4972546;28;20041;-64
2021/07/01 10:34:27;;;;;;;21.02;14.10;;;;;;;34.04;38.54;96355.50;4972224;28;20149;-64
2021/07/01 10:37:19;;;;;;;18.05;13.13;;;;;;;33.61;39.67;96385.00;4970863;28;20061;-67
2021/07/01 10:39:46;;;;;;;22.52;13.45;;;;;;;33.37;38.68;96280.84;4978171;28;20050;-73
2021/07/01 10:42:14;;;;;;;18.48;12.43;;;;;;;33.36;39.45;96308.75;4971790;28;20697;-64
2021/07/01 10:44:39;;;;;;;21.95;13.75;;;;;;;34.36;38.52;96371.50;4974821;28;20050;-65
2021/07/01 10:47:25;;;;;;;24.08;15.85;;;;;;;34.81;37.85;96345.69;4973184;28;20045;-66
2021/07/01 10:49:50;;;;;;;17.35;13.05;;;;;;;34.89;36.56;96358.16;4983466;28;20041;-68
2021/07/01 10:52:16;;;;;;;21.33;12.60;;;;;;;33.84;37.77;96358.88;4966057;28;20022;-68
2021/07/01 10:54:57;;;;;;;16.33;12.88;;;;;;;32.33;39.86;96154.34;4743347;28;5001530;-68
2021/07/01 10:57:28;;;;;;;22.02;12.82;;;;;;;34.33;37.43;96285.53;5006009;28;20116;-68
2021/07/01 10:59:54;;;;;;;23.00;11.65;;;;;;;35.39;36.82;96345.75;5005356;28;20030;-70
2021/07/01 11:02:47;;;;;;;20.42;12.77;;;;;;;35.34;36.00;96268.81;5004748;28;20111;-61
2021/07/01 11:05:13;;;;;;;24.45;12.35;;;;;;;36.38;34.44;96344.47;5004746;28;20046;-62
2021/07/01 11:07:44;;;;;;;24.00;12.27;;;;;;;36.19;34.04;96303.44;5005809;28;20053;-61
2021/07/01 11:10:10;;;;;;;21.63;11.65;;;;;;;36.18;32.84;96330.75;5004724;28;20176;-64
2021/07/01 11:12:45;;;;;;;19.92;10.98;;;;;;;35.94;34.12;96333.91;5004728;28;20108;-62
2021/07/01 11:15:12;;;;;;;20.38;11.50;;;;;;;36.11;34.41;96319.88;5005698;28;20046;-62
2021/07/01 11:17:44;;;;;;;23.77;11.85;;;;;;;36.61;34.37;96318.75;5004451;28;20606;-61